Airfield :
LOGIN :

Register | Disclaimer

   EN    FR    IT 

 










Legend :    VFR   Marginal VFR   IFR   Intensive IFR   Very Intensive IFR
Visi :
Ceiling :
>= 8 km
>= 3000ft
5 to 8 km
1000 to 3000 ft
1500m to 5 km
500 to 1000 ft
800 to 1500m
200 to 500 ft
< 800m
< 200 ft
Symbols :   Thunderstorms  Fog  Heavy snow  Heavy precipitations  Wind > 20 kt
SIGMETs :     Misc.  Thunderstorms  Icing  Turbulence  Mountain Waves  Volcanic Ashes







- Airport Elevation : 300 ft
- IATA code : MLA


LMML - Malta Luqa

CURRENT METAR :
  • 241315Z 23009KT CAVOK 23/19 Q1017 NOSIG

EXPIRED METARs :
  • 241245Z 22007KT CAVOK 23/18 Q1017 NOSIG
  • 241215Z 24005KT CAVOK 24/17 Q1017 NOSIG
  • 241145Z 24003KT 200V270 9999 FEW018 21/18 Q1022 NOSIG
  • 241115Z 16005KT 130V190 9999 FEW020 19/18 Q1021 RESHRA BECMG 9999 RMK CB TO SW
  • 241108Z 14004KT 110V170 9999 FEW020 19/17 Q1021 RESHRA BECMG 9999 RMK CB TO SW
  • 241045Z 05005KT 360V150 8000 -SHRA SCT025TCU 18/17 Q1021 RESHRA BECMG 9999

TAF TAF LMML
Valid from the 24 at 12:00 until the 25 at 12:00 UTC


241100Z 2412/2512 21010KT 9999 SCT020
TEMPO 2412/2415 5000 SHRA BKN015TCU
PROB30
TEMPO 2412/2415 VRB20G35KT 3000 TSRA BKN015CB
PROB40
TEMPO 2415/2424 7000 SHRA
BECMG 2422/2501 30012KT
No reported NOTAMs for that airfield.
2 SIGMETs reported for the Malta FIR (LMMM) :
 
Embedded thunderstorms
LMMM SIGMET 6 VALID 241159/241559 LMML
LMMM MALTA FIR EMBD TS OBS AND FCST BTN E016 AND E018 CB TOPS FL330 MOV SE WKN=
LMMM SIGMET 5 VALID 241158/241558 LMML
LMMM MALTA FIR SEV ICING FCST BTN E015 AND E018 FL100/150 MOV SE WKN=



MET'MAP, your aeronautical weather chart ! - Copyright ORBIFLY December 2007 - Disclaimer

ORBIFLY MET'MAP TEAM :

Programming & Development : Alexandra Zaïnal
Concept & Development : Baudouin d'Aumeries
Co-Development & Prog : Marc-Olivier Méhu
Technical & hardware support : Manuel Goepfert

Contact : metmap@orbifly.com




SOURCES & CREDITS :

   NOAA